Nearby METAR Reports


KSYR - Syracuse, New York, USA
Distance from station: SE 5mi, 8km
Updated: Wed, 24-May-2017 1:54am EDT
Partly cloudy
Partly cloudy
 Wind from ESE
Wind: ESE 3 mph , 6 km/h
Temperature: 54°F , 12°C
Dew Point: 52°F , 11°C
Humidity: 94%
Barometer: 29.74 inHg , 1007.1 hPa
Clouds: Partly cloudy
Visibility: 10 miles , 16 km
Cloud details: Few Clouds 20000 ft
Partly cloudy 25000 ft
2017/05/24 05:54 KSYR 240554Z 11003KT 10SM FEW200 SCT250 12/11 A2974 RMK AO2 SLP068 T01220106 10194 20117 58013
KFZY - Fulton, New York, USA
Distance from station: NW 17mi, 27km
Updated: Wed, 24-May-2017 1:54am EDT
Clear
Clear
 Wind from calm
Wind: Calm
Temperature: 54°F , 12°C
Dew Point: 48°F , 9°C
Humidity: 82%
Barometer: 29.75 inHg , 1007.5 hPa
Clouds: Clear
Visibility: 10 miles , 16 km
2017/05/24 05:54 KFZY 240554Z AUTO 00000KT 10SM CLR 12/09 A2975 RMK AO2 SLP071 T01220094 10200 20111 58015
 
KRME - Rome/Griffiss Af, New York, USA
Distance from station: E 39mi, 62km
Updated: Wed, 24-May-2017 1:53am EDT
Clear
Clear
 Wind from SSE
Wind: SSE 3 mph , 6 km/h
Temperature: 52°F , 11°C
Dew Point: 50°F , 10°C
Humidity: 94%
Barometer: 29.78 inHg , 1008.5 hPa
Clouds: Clear
Visibility: 10 miles , 16 km
2017/05/24 05:53 KRME 240553Z AUTO 15003KT 10SM CLR 11/10 A2978 RMK AO2 SLP083 T01060100 10194 20100 58008 $
KITH - Ithaca/Tompkins, New York, USA
Distance from station: SSW 51mi, 82km
Updated: Wed, 24-May-2017 1:56am EDT
Clear
Clear
 Wind from ENE
Wind: ENE 5 mph , 7 km/h
Temperature: 54°F , 12°C
Dew Point: 46°F , 8°C
Humidity: 77%
Barometer: 29.77 inHg , 1008.1 hPa
Clouds: Clear
Visibility: 10 miles , 16 km
2017/05/24 05:56 KITH 240556Z AUTO 07004KT 10SM CLR 12/08 A2977 RMK AO2 SLP079 T01170083 10183 20106 56014
 
KART - Watertown, New York, USA
Distance from station: N 56mi, 91km
Updated: Wed, 24-May-2017 12:56am EDT
Clear
Clear
 Wind from NE
Wind: NE 3 mph , 6 km/h
Temperature: 48°F , 9°C
Dew Point: 48°F , 9°C
Humidity: 100%
Barometer: 29.76 inHg , 1007.8 hPa
Clouds: Clear
Visibility: 10 miles , 16 km
2017/05/24 04:56 KART 240456Z AUTO 04003KT 10SM CLR 09/09 A2976 RMK AO2 SLP076 T00940094 402110050
KPEO - Penn Yan, New York, USA
Distance from station: SW 58mi, 93km
Updated: Wed, 24-May-2017 1:53am EDT
Clear
Clear
 Wind from calm
Wind: Calm
Temperature: 52°F , 11°C
Dew Point: 46°F , 8°C
Humidity: 82%
Barometer: 29.75 inHg , 1007.5 hPa
Clouds: Clear
Visibility: 10 miles , 16 km
2017/05/24 05:53 KPEO 240553Z AUTO 00000KT 10SM CLR 11/08 A2975 RMK AO2 SLP073 T01110078 10194 20106 57014
 
KGTB - Fort Drum/Wheele, New York, USA
Distance from station: NNE 64mi, 102km
Updated: Wed, 24-May-2017 12:58am EDT
Clear
Clear
 Wind from SE
Wind: SE 9 mph , 15 km/h
Temperature: 55°F , 13°C
Dew Point: 50°F , 10°C
Humidity: 82%
Barometer: 29.77 inHg , 1008.1 hPa
Clouds: Clear
Visibility: 10 miles , 16 km
2017/05/24 04:58 KGTB 240458Z AUTO 14008KT 10SM CLR 13/10 A2977 RMK AO2 SLP080 T01270098 402140065
CWQP - Point Petre (mar, Ontario, Canada
Distance from station: NW 67mi, 107km
Updated: Wed, 24-May-2017 1:00am EDT

 Wind from E
Wind: E 5 mph , 7 km/h
Temperature: 52°F , 11°C
Dew Point: 50°F , 10°C
Humidity: 94%
2017/05/24 05:00 CWQP 240500Z AUTO 08004KT 11/10 RMK AO1 SLP077 T01110096 58012
 
KBGM - Binghamton, New York, USA
Distance from station: S 67mi, 107km
Updated: Wed, 24-May-2017 1:53am EDT
Clear
Clear
 Wind from calm
Wind: Calm
Temperature: 54°F , 12°C
Dew Point: 45°F , 7°C
Humidity: 72%
Barometer: 29.77 inHg , 1008.1 hPa
Clouds: Clear
Visibility: 10 miles , 16 km
2017/05/24 05:53 KBGM 240553Z AUTO 00000KT 10SM CLR 12/07 A2977 RMK AO2 SLP075 T01220072 10172 20122 58018
CYGK - Kingston Arpt (m, Ontario, Canada
Distance from station: NNW 75mi, 121km
Updated: Tue, 23-May-2017 11:00pm EDT
NOT Current

 
2017/05/24 03:00 CYGK 240300Z CCA 32003KT 15SM SCT088 BKN270 12/10 A2978 RMK AC3CI3 LAST STFD OBS / NEXT 241000 UTC SLP087